createdAt,value
2022-10-12T00:01:19.496Z,12.38
2022-10-12T00:03:46.086Z,9.50
2022-10-12T00:06:16.281Z,10.70
2022-10-12T00:08:45.065Z,11.95
2022-10-12T00:11:15.168Z,13.10
2022-10-12T00:13:42.099Z,11.02
2022-10-12T08:11:30.483Z,14.27
2022-10-12T08:13:57.190Z,16.48
2022-10-12T08:16:24.222Z,11.73
2022-10-12T08:18:51.137Z,11.40
2022-10-12T08:21:18.381Z,11.88
2022-10-12T09:30:26.111Z,14.50
2022-10-12T09:36:42.479Z,9.13
2022-10-12T09:39:30.966Z,11.90
2022-10-12T09:41:57.676Z,16.17
2022-10-12T09:48:56.662Z,11.00
2022-10-12T09:51:23.463Z,12.40
2022-10-12T09:53:55.336Z,9.40
2022-10-12T09:56:29.740Z,11.88
2022-10-12T09:59:01.191Z,14.30
2022-10-12T10:01:36.278Z,16.40
2022-10-12T10:04:16.796Z,12.80
2022-10-12T10:06:46.250Z,11.98
2022-10-12T10:09:34.379Z,7.05
2022-10-12T10:12:22.848Z,13.55
2022-10-12T10:14:51.322Z,12.73
2022-10-12T10:17:25.383Z,10.30
2022-10-12T10:19:53.380Z,13.25
2022-10-12T10:22:21.719Z,15.23
2022-10-12T10:25:00.217Z,8.85
2022-10-12T10:27:27.361Z,11.38
2022-10-12T10:30:29.765Z,17.30
2022-10-12T10:33:17.809Z,12.90
2022-10-12T10:35:57.236Z,15.38
2022-10-12T10:40:52.361Z,13.75
2022-10-12T10:43:27.753Z,12.87
2022-10-12T10:46:03.345Z,9.77
2022-10-12T10:48:35.589Z,15.52
2022-10-12T10:51:07.196Z,10.40
2022-10-12T10:53:48.154Z,12.38
2022-10-12T10:56:14.950Z,10.77
2022-10-12T10:58:48.181Z,7.63
2022-10-12T11:01:33.797Z,10.52
2022-10-12T11:04:09.554Z,8.82
2022-10-12T11:06:40.974Z,14.75
2022-10-12T11:09:23.519Z,11.50
2022-10-12T11:12:17.074Z,12.48
2022-10-12T11:14:48.179Z,14.48
2022-10-12T11:17:37.906Z,12.95
2022-10-12T11:20:41.736Z,11.80
2022-10-12T11:23:29.306Z,9.38
2022-10-12T11:26:16.113Z,14.35
2022-10-12T11:28:43.375Z,9.98
2022-10-12T11:31:38.165Z,12.30
2022-10-12T11:34:13.761Z,14.25
2022-10-12T11:36:55.803Z,14.77
2022-10-12T11:39:43.836Z,9.55
2022-10-12T11:42:21.796Z,9.55
2022-10-12T11:44:48.994Z,14.50
2022-10-12T11:47:24.123Z,11.57
2022-10-12T11:49:59.156Z,13.32
2022-10-12T11:52:36.232Z,11.48
2022-10-12T11:55:27.020Z,12.32
2022-10-12T11:57:55.950Z,7.82
2022-10-12T12:01:01.023Z,11.38
2022-10-12T12:03:38.746Z,8.00
2022-10-12T12:06:30.461Z,7.05
2022-10-12T12:09:03.022Z,9.32
2022-10-12T12:11:34.969Z,8.25
2022-10-12T12:14:44.044Z,10.27
2022-10-12T12:19:51.541Z,10.50
2022-10-12T12:22:27.274Z,10.27
2022-10-12T12:24:59.870Z,10.60
2022-10-12T12:27:31.870Z,8.38
2022-10-12T12:30:01.453Z,7.82
2022-10-12T12:32:50.170Z,10.90
2022-10-12T12:35:30.921Z,9.05
2022-10-12T12:38:06.497Z,8.77
2022-10-12T12:40:34.198Z,11.18
2022-10-12T12:43:19.577Z,7.90
2022-10-12T12:46:11.691Z,10.75
2022-10-12T12:48:47.517Z,7.65
2022-10-12T12:51:26.934Z,10.13
2022-10-12T12:57:17.524Z,8.05
2022-10-12T13:00:21.860Z,15.30
2022-10-12T13:03:15.761Z,8.30
2022-10-12T13:05:51.058Z,11.05
2022-10-12T13:08:26.658Z,12.32
2022-10-12T13:11:25.654Z,9.55
2022-10-12T13:14:27.762Z,8.00
2022-10-12T13:17:36.412Z,10.02
2022-10-12T13:20:21.735Z,5.72
2022-10-12T13:22:52.062Z,8.07
2022-10-12T13:25:29.700Z,8.07
2022-10-12T13:27:58.516Z,9.13
2022-10-12T13:30:47.942Z,11.98
2022-10-12T13:33:38.861Z,11.93
2022-10-12T13:36:10.401Z,8.73
2022-10-12T13:38:39.154Z,8.88
2022-10-12T13:41:13.317Z,12.82
2022-10-12T13:43:48.819Z,7.28
2022-10-12T13:46:37.182Z,7.20
2022-10-12T13:49:17.042Z,9.17
2022-10-12T13:51:46.849Z,8.27
2022-10-12T13:54:37.807Z,8.15
2022-10-12T13:57:29.168Z,7.30
2022-10-12T14:00:00.666Z,9.73
2022-10-12T14:02:30.325Z,7.43
2022-10-12T14:04:59.545Z,10.80
2022-10-12T14:07:36.107Z,8.82
2022-10-12T14:10:33.170Z,8.43
2022-10-12T14:13:02.122Z,9.48
2022-10-12T14:15:34.190Z,6.63
2022-10-12T14:18:01.069Z,9.02
2022-10-12T14:20:29.822Z,9.02
2022-10-12T14:22:58.539Z,9.07
2022-10-12T14:25:30.791Z,10.30
2022-10-12T14:28:01.856Z,8.00
2022-10-12T14:30:50.574Z,8.88
2022-10-12T14:33:17.068Z,9.00
2022-10-12T14:35:48.149Z,7.72
2022-10-12T14:38:44.493Z,10.75
2022-10-12T14:41:38.314Z,8.02
2022-10-12T14:44:10.486Z,40.63
2022-10-12T14:46:41.221Z,19.33
2022-10-12T14:49:16.675Z,10.55
2022-10-12T14:51:43.577Z,8.90
2022-10-12T14:54:10.889Z,7.18
2022-10-12T14:56:37.525Z,7.20
2022-10-12T14:59:04.186Z,6.80
2022-10-12T15:01:31.031Z,11.00
2022-10-12T15:03:57.692Z,6.30
2022-10-12T15:06:24.367Z,10.77
2022-10-12T15:08:52.536Z,6.75
2022-10-12T15:11:19.406Z,9.35
2022-10-12T15:13:46.344Z,7.07
2022-10-12T15:16:22.233Z,6.82
2022-10-12T15:18:49.616Z,9.32
2022-10-12T15:21:17.288Z,8.10
2022-10-12T15:23:43.988Z,10.52
2022-10-12T15:26:16.040Z,8.38
2022-10-12T15:28:43.834Z,9.18
2022-10-12T15:31:17.490Z,8.27
2022-10-12T15:33:44.787Z,11.55
2022-10-12T15:36:11.542Z,9.70
2022-10-12T15:38:38.359Z,8.02
2022-10-12T15:41:05.198Z,8.73
2022-10-12T15:43:33.672Z,9.55
2022-10-12T15:46:02.373Z,7.13
2022-10-12T15:48:29.217Z,9.88
2022-10-12T15:50:55.930Z,9.70
2022-10-12T15:53:24.939Z,13.98
2022-10-12T15:55:53.124Z,8.38
2022-10-12T15:58:20.598Z,11.75
2022-10-12T16:00:47.803Z,13.32
2022-10-12T16:03:21.300Z,9.48
2022-10-12T16:05:51.041Z,9.05
2022-10-12T16:08:17.593Z,12.93
2022-10-12T16:10:45.555Z,12.65
2022-10-12T16:13:13.933Z,9.48
2022-10-12T16:15:41.898Z,12.77
2022-10-12T16:18:09.457Z,10.88
2022-10-12T16:20:37.970Z,9.20
2022-10-12T16:23:08.320Z,14.47
2022-10-12T16:25:35.531Z,10.50
2022-10-12T16:28:02.156Z,11.35
2022-10-12T16:30:28.810Z,8.98
2022-10-12T16:32:55.506Z,10.50
2022-10-12T16:35:22.388Z,10.38
2022-10-12T16:37:49.328Z,11.80
2022-10-12T16:40:16.218Z,9.18
2022-10-12T16:42:43.393Z,15.43
2022-10-12T16:45:11.028Z,14.27
2022-10-12T16:47:41.911Z,10.52
2022-10-12T16:50:10.120Z,13.02
2022-10-12T16:52:36.840Z,13.05
2022-10-12T16:55:04.340Z,12.23
2022-10-12T16:57:31.288Z,11.32
2022-10-12T16:59:58.785Z,12.70
2022-10-12T17:02:27.440Z,9.95
2022-10-12T17:04:54.090Z,11.80
2022-10-12T17:07:20.765Z,11.35
2022-10-12T17:09:47.477Z,13.63
2022-10-12T17:12:14.448Z,12.90
2022-10-12T17:14:41.304Z,10.48
2022-10-12T17:17:07.983Z,10.00
2022-10-12T17:19:40.119Z,14.00
2022-10-12T17:22:10.025Z,13.27
2022-10-12T17:24:38.612Z,13.52
2022-10-12T17:27:07.986Z,13.37
2022-10-12T17:32:04.229Z,11.60
2022-10-12T17:34:33.736Z,13.60
2022-10-12T17:39:30.702Z,13.48
2022-10-12T17:41:57.266Z,17.23
2022-10-12T17:44:23.907Z,14.10
2022-10-12T17:46:50.601Z,13.73
2022-10-12T17:49:23.618Z,10.77
2022-10-12T17:51:51.471Z,18.42
2022-10-12T17:54:19.629Z,13.70
2022-10-12T17:56:46.372Z,15.85
2022-10-12T17:59:19.522Z,16.73
2022-10-12T18:01:47.367Z,10.25
2022-10-12T18:04:14.489Z,12.23
2022-10-12T18:06:41.197Z,14.43
2022-10-12T18:09:09.068Z,13.48
2022-10-12T18:11:37.185Z,15.10
2022-10-12T18:14:03.842Z,13.30
2022-10-12T18:16:32.966Z,15.80
2022-10-12T18:19:01.844Z,12.55
2022-10-12T18:21:30.612Z,17.45
2022-10-12T18:23:57.375Z,15.95
2022-10-12T18:26:25.016Z,18.13
2022-10-12T18:28:53.720Z,19.25
2022-10-12T18:31:25.084Z,12.57
2022-10-12T18:33:52.874Z,17.63
2022-10-12T18:36:20.723Z,12.93
2022-10-12T18:38:47.563Z,13.73
2022-10-12T18:41:17.185Z,16.38
2022-10-12T18:43:44.211Z,17.25
2022-10-12T18:46:13.665Z,19.88
2022-10-12T18:51:15.774Z,17.90
2022-10-12T18:53:42.450Z,20.15
2022-10-12T18:56:10.381Z,19.17
2022-10-12T18:58:39.751Z,23.63
2022-10-12T19:01:19.423Z,16.50
2022-10-12T19:03:47.954Z,17.30
2022-10-12T19:06:17.800Z,25.92
2022-10-12T19:08:44.854Z,25.13
2022-10-12T19:11:12.826Z,22.00
2022-10-12T19:13:40.697Z,22.83
2022-10-12T19:16:17.327Z,20.10
2022-10-12T19:18:44.131Z,22.70
2022-10-12T19:21:14.007Z,23.27
2022-10-12T19:23:41.290Z,21.70
2022-10-12T19:26:10.754Z,22.75
2022-10-12T19:31:31.405Z,26.33
2022-10-12T19:34:00.746Z,29.55
2022-10-12T19:36:28.268Z,37.00
2022-10-12T19:38:56.499Z,30.02
2022-10-12T19:41:23.640Z,36.83
2022-10-12T19:43:50.297Z,27.60
2022-10-12T19:46:16.888Z,33.17
2022-10-12T19:48:47.872Z,28.08
2022-10-12T19:51:14.472Z,27.77
2022-10-12T19:53:41.883Z,28.08
2022-10-12T19:56:14.240Z,22.15
2022-10-12T19:58:42.264Z,27.63
2022-10-12T20:01:12.617Z,26.98
2022-10-12T20:03:44.074Z,25.48
2022-10-12T20:06:13.498Z,26.55
2022-10-12T20:08:41.267Z,21.95
2022-10-12T20:11:11.255Z,21.48
2022-10-12T20:13:40.946Z,23.50
2022-10-12T20:16:08.013Z,25.30
2022-10-12T20:18:34.672Z,19.90
2022-10-12T20:21:05.581Z,20.63
2022-10-12T20:23:36.905Z,21.42
2022-10-12T20:26:10.253Z,33.47
2022-10-12T20:28:37.794Z,29.38
2022-10-12T20:31:05.801Z,26.45
2022-10-12T20:33:33.175Z,30.13
2022-10-12T20:36:00.038Z,23.02
2022-10-12T20:38:26.912Z,24.00
2022-10-12T20:41:10.755Z,21.05
2022-10-12T20:43:41.757Z,18.70
2022-10-12T20:46:12.891Z,19.33
2022-10-12T20:48:40.238Z,19.02
2022-10-12T20:51:17.666Z,20.35
2022-10-12T20:53:44.298Z,22.58
2022-10-12T20:56:11.361Z,19.55
2022-10-12T20:58:38.358Z,24.80
2022-10-12T21:01:11.056Z,23.65
2022-10-12T21:03:38.453Z,33.05
2022-10-12T21:06:06.922Z,29.13
2022-10-12T21:08:33.920Z,22.45
2022-10-12T21:11:00.742Z,22.55
2022-10-12T21:13:30.713Z,21.55
2022-10-12T21:15:57.503Z,21.10
2022-10-12T21:18:24.289Z,19.88
2022-10-12T21:20:59.697Z,18.00
2022-10-12T21:23:27.253Z,18.80
2022-10-12T21:25:54.901Z,23.35
2022-10-12T21:28:23.025Z,16.50
2022-10-12T21:30:50.506Z,19.65
2022-10-12T21:33:18.622Z,18.05
2022-10-12T21:35:45.700Z,22.35
2022-10-12T21:38:12.309Z,27.80
2022-10-12T21:40:38.917Z,32.78
2022-10-12T21:43:05.523Z,20.88
2022-10-12T21:45:33.070Z,27.67
2022-10-12T21:47:59.976Z,22.13
2022-10-12T21:50:27.398Z,19.23
2022-10-12T21:52:59.296Z,22.45
2022-10-12T21:55:27.078Z,25.85
2022-10-12T21:57:53.658Z,20.38
2022-10-12T22:00:20.346Z,20.75
2022-10-12T22:02:46.988Z,24.60
2022-10-12T22:05:13.740Z,25.48
2022-10-12T22:07:43.156Z,24.33
2022-10-12T22:10:12.807Z,24.00
2022-10-12T22:12:39.706Z,19.77
2022-10-12T22:15:10.044Z,20.95
2022-10-12T22:17:36.696Z,20.13
2022-10-12T22:20:04.215Z,19.90
2022-10-12T22:22:30.856Z,23.52
2022-10-12T22:24:57.486Z,20.30
2022-10-12T22:27:24.213Z,22.00
2022-10-12T22:29:51.085Z,19.63
2022-10-12T22:32:17.999Z,21.45
2022-10-12T22:34:44.842Z,20.77
2022-10-12T22:37:11.395Z,20.60
2022-10-12T22:39:37.948Z,19.10
2022-10-12T22:42:04.576Z,20.55
2022-10-12T22:44:31.112Z,22.17
2022-10-12T22:46:57.748Z,29.05
2022-10-12T22:49:24.323Z,19.63
2022-10-12T22:51:50.966Z,20.60
2022-10-12T22:54:17.643Z,27.25
2022-10-12T22:56:44.397Z,23.75
2022-10-12T22:59:14.612Z,19.95
2022-10-12T23:01:41.588Z,21.80
2022-10-12T23:04:08.348Z,22.08
2022-10-12T23:06:35.256Z,27.40
2022-10-12T23:09:02.464Z,22.48
2022-10-12T23:11:30.001Z,21.10
2022-10-12T23:13:57.962Z,25.38
2022-10-12T23:16:32.300Z,19.55
2022-10-12T23:19:05.073Z,24.42
2022-10-12T23:21:33.621Z,21.88
2022-10-12T23:24:01.784Z,18.30
2022-10-12T23:26:29.473Z,19.58
2022-10-12T23:28:56.740Z,19.88
2022-10-12T23:31:27.316Z,25.77
2022-10-12T23:34:02.018Z,23.70
2022-10-12T23:36:29.308Z,21.63
2022-10-12T23:38:56.377Z,25.65
2022-10-12T23:41:23.069Z,30.60
2022-10-12T23:43:49.668Z,22.30
2022-10-12T23:46:16.285Z,18.15
2022-10-12T23:48:42.860Z,19.42
2022-10-12T23:51:09.889Z,20.25
2022-10-12T23:53:37.009Z,20.73
2022-10-12T23:56:04.493Z,19.70
2022-10-12T23:58:31.164Z,16.58
